createdAt,value
2019-05-02T00:05:00.269Z,10.88
2019-05-02T00:10:05.167Z,10.93
2019-05-02T00:15:07.250Z,10.98
2019-05-02T00:20:10.519Z,11.02
2019-05-02T00:25:16.075Z,11.05
2019-05-02T00:30:18.642Z,11.08
2019-05-02T00:35:20.217Z,11.08
2019-05-02T00:40:26.077Z,11.07
2019-05-02T00:45:25.944Z,11.02
2019-05-02T00:50:29.558Z,10.97
2019-05-02T00:55:33.895Z,10.93
2019-05-02T01:00:39.334Z,10.92
2019-05-02T01:05:40.917Z,10.86
2019-05-02T01:10:42.394Z,10.82
2019-05-02T01:15:44.370Z,10.78
2019-05-02T01:20:47.312Z,10.71
2019-05-02T01:25:52.898Z,10.70
2019-05-02T01:31:02.991Z,10.69
2019-05-02T01:36:08.201Z,10.68
2019-05-02T01:41:10.068Z,10.63
2019-05-02T01:46:11.754Z,10.67
2019-05-02T01:51:13.333Z,10.66
2019-05-02T01:56:14.849Z,10.64
2019-05-02T02:01:21.403Z,10.64
2019-05-02T02:06:20.047Z,10.66
2019-05-02T02:11:21.670Z,10.69
2019-05-02T02:16:23.182Z,10.70
2019-05-02T02:21:25.561Z,10.74
2019-05-02T02:26:28.375Z,10.75
2019-05-02T02:31:29.901Z,10.75
2019-05-02T02:36:34.508Z,10.77
2019-05-02T02:41:35.260Z,10.78
2019-05-02T02:46:40.084Z,10.81
2019-05-02T02:51:42.018Z,10.79
2019-05-02T02:56:43.600Z,10.79
2019-05-02T03:01:45.077Z,10.80
2019-05-02T03:06:47.224Z,10.81
2019-05-02T03:12:09.066Z,10.83
2019-05-02T03:17:11.086Z,10.82
2019-05-02T03:22:12.726Z,10.84
2019-05-02T03:27:15.412Z,10.84
2019-05-02T03:32:32.041Z,10.84
2019-05-02T03:37:21.136Z,10.82
2019-05-02T03:42:22.968Z,10.83
2019-05-02T03:47:24.736Z,10.83
2019-05-02T03:52:26.416Z,10.80
2019-05-02T03:57:33.434Z,10.81
2019-05-02T04:02:32.797Z,10.85
2019-05-02T04:07:39.939Z,10.85
2019-05-02T04:12:40.124Z,10.85
2019-05-02T04:17:42.089Z,10.89
2019-05-02T04:22:49.079Z,10.89
2019-05-02T04:27:48.909Z,10.95
2019-05-02T04:32:55.718Z,10.96
2019-05-02T04:37:53.993Z,10.95
2019-05-02T04:43:02.082Z,10.90
2019-05-02T04:48:03.838Z,10.85
2019-05-02T04:53:02.324Z,10.97
2019-05-02T04:58:03.799Z,11.07
2019-05-02T05:03:07.319Z,11.20
2019-05-02T05:08:08.675Z,11.29
2019-05-02T05:13:12.148Z,11.44
2019-05-02T05:18:14.616Z,11.54
2019-05-02T05:23:21.365Z,11.69
2019-05-02T05:28:21.717Z,11.85
2019-05-02T05:33:23.292Z,12.03
2019-05-02T05:38:28.544Z,12.20
2019-05-02T05:43:28.275Z,12.44
2019-05-02T05:48:32.051Z,12.68
2019-05-02T05:53:33.279Z,12.86
2019-05-02T05:58:39.959Z,12.95
2019-05-02T06:03:42.005Z,13.20
2019-05-02T06:08:41.651Z,13.41
2019-05-02T06:13:48.940Z,13.65
2019-05-02T06:18:47.062Z,13.84
2019-05-02T06:23:48.587Z,14.08
2019-05-02T06:28:50.063Z,14.21
2019-05-02T06:33:51.598Z,14.35
2019-05-02T06:38:56.692Z,14.51
2019-05-02T06:43:56.497Z,14.61
2019-05-02T06:48:58.342Z,14.75
2019-05-02T06:53:59.962Z,14.88
2019-05-02T06:59:03.384Z,15.07
2019-05-02T07:04:05.117Z,15.28
2019-05-02T07:09:06.847Z,15.53
2019-05-02T07:14:13.682Z,15.54
2019-05-02T07:19:12.842Z,15.63
2019-05-02T07:24:14.868Z,15.75
2019-05-02T07:29:16.984Z,15.91
2019-05-02T07:34:19.896Z,15.92
2019-05-02T07:39:21.578Z,16.11
2019-05-02T07:44:27.093Z,16.17
2019-05-02T07:49:32.462Z,16.27
2019-05-02T07:54:30.033Z,16.48
2019-05-02T07:59:31.607Z,16.60
2019-05-02T08:04:33.222Z,16.75
2019-05-02T08:09:39.085Z,16.93
2019-05-02T08:14:39.990Z,16.99
2019-05-02T08:19:43.032Z,17.06
2019-05-02T08:24:45.014Z,17.06
2019-05-02T08:29:46.698Z,17.08
2019-05-02T08:34:51.972Z,17.08
2019-05-02T08:39:51.630Z,17.08
2019-05-02T08:44:56.376Z,17.25
2019-05-02T08:49:56.821Z,17.51
2019-05-02T08:54:58.477Z,17.66
2019-05-02T09:00:01.379Z,17.59
2019-05-02T09:05:06.056Z,17.89
2019-05-02T09:10:08.710Z,17.91
2019-05-02T09:15:11.906Z,18.01
2019-05-02T09:20:18.723Z,18.19
2019-05-02T09:25:18.924Z,18.24
2019-05-02T09:30:22.751Z,18.53
2019-05-02T09:35:25.151Z,17.79
2019-05-02T09:40:26.628Z,17.43
2019-05-02T09:45:33.343Z,17.76
2019-05-02T09:50:34.832Z,17.93
2019-05-02T09:55:43.804Z,18.19
2019-05-02T10:01:01.833Z,18.47
2019-05-02T10:06:03.937Z,18.46
2019-05-02T10:11:06.017Z,18.76
2019-05-02T10:16:07.696Z,18.94
2019-05-02T10:21:13.456Z,18.10
2019-05-02T10:26:19.820Z,17.70
2019-05-02T10:31:16.554Z,17.32
2019-05-02T10:36:19.672Z,17.71
2019-05-02T10:41:22.410Z,18.21
2019-05-02T10:46:33.430Z,17.93
2019-05-02T10:51:34.053Z,17.88
2019-05-02T10:56:35.812Z,18.48
2019-05-02T11:01:56.319Z,18.81
2019-05-02T11:06:58.527Z,18.96
2019-05-02T11:12:02.544Z,18.95
2019-05-02T11:17:13.832Z,19.18
2019-05-02T11:22:15.687Z,19.02
2019-05-02T11:27:17.273Z,18.94
2019-05-02T11:32:18.949Z,18.53
2019-05-02T11:37:22.515Z,18.30
2019-05-02T11:42:27.231Z,18.72
2019-05-02T11:47:27.523Z,19.21
2019-05-02T11:52:33.038Z,19.67
2019-05-02T11:57:33.184Z,19.61
2019-05-02T12:02:35.188Z,19.50
2019-05-02T12:07:37.058Z,19.72
2019-05-02T12:12:39.157Z,20.25
2019-05-02T12:17:41.950Z,19.55
2019-05-02T12:22:43.975Z,20.00
2019-05-02T12:27:46.580Z,20.05
2019-05-02T12:32:48.069Z,20.28
2019-05-02T12:37:53.675Z,20.39
2019-05-02T12:42:53.382Z,20.24
2019-05-02T12:47:54.864Z,20.36
2019-05-02T12:52:57.440Z,20.33
2019-05-02T12:57:59.064Z,20.10
2019-05-02T13:03:11.644Z,20.25
2019-05-02T13:08:13.374Z,20.31
2019-05-02T13:13:17.432Z,20.41
2019-05-02T13:18:23.335Z,20.29
2019-05-02T13:23:27.397Z,19.96
2019-05-02T13:28:26.807Z,19.39
2019-05-02T13:33:31.803Z,19.58
2019-05-02T13:38:35.283Z,19.88
2019-05-02T13:43:38.871Z,20.07
2019-05-02T13:48:42.740Z,20.13
2019-05-02T13:53:47.104Z,19.99
2019-05-02T13:58:49.037Z,19.54
2019-05-02T14:03:53.674Z,19.70
2019-05-02T14:08:56.282Z,20.05
2019-05-02T14:13:57.963Z,19.61
2019-05-02T14:18:59.447Z,19.50
2019-05-02T14:24:01.697Z,19.57
2019-05-02T14:29:07.136Z,19.48
2019-05-02T14:34:21.924Z,19.44
2019-05-02T14:39:23.407Z,19.40
2019-05-02T14:44:28.741Z,19.49
2019-05-02T14:49:28.482Z,19.42
2019-05-02T14:54:32.272Z,19.53
2019-05-02T14:59:33.899Z,19.58
2019-05-02T15:04:38.283Z,19.56
2019-05-02T15:09:39.125Z,19.59
2019-05-02T15:14:40.636Z,19.29
2019-05-02T15:19:42.739Z,19.08
2019-05-02T15:24:44.419Z,18.61
2019-05-02T15:29:45.905Z,18.24
2019-05-02T15:34:56.306Z,18.43
2019-05-02T15:45:05.905Z,18.14
2019-05-02T15:50:08.062Z,18.29
2019-05-02T15:55:11.577Z,18.28
2019-05-02T16:00:23.124Z,18.11
2019-05-02T16:05:23.858Z,18.07
2019-05-02T16:10:25.514Z,18.11
2019-05-02T16:15:27.094Z,18.13
2019-05-02T16:20:32.278Z,18.11
2019-05-02T16:25:34.177Z,18.04
2019-05-02T16:30:36.983Z,17.88
2019-05-02T16:35:39.768Z,17.83
2019-05-02T16:40:41.897Z,17.77
2019-05-02T16:45:44.055Z,17.72
2019-05-02T16:50:45.732Z,17.59
2019-05-02T16:55:47.214Z,17.48
2019-05-02T17:00:48.888Z,17.39
2019-05-02T17:05:54.136Z,17.26
2019-05-02T17:10:57.012Z,17.13
2019-05-02T17:15:58.673Z,17.00
2019-05-02T17:21:01.700Z,16.85
2019-05-02T17:26:03.983Z,16.71
2019-05-02T17:31:10.113Z,16.57
2019-05-02T17:36:09.431Z,16.49
2019-05-02T17:41:11.883Z,16.37
2019-05-02T17:46:18.651Z,16.27
2019-05-02T17:51:22.733Z,16.12
2019-05-02T17:56:25.066Z,15.98
2019-05-02T18:01:33.324Z,15.81
2019-05-02T18:06:35.523Z,15.69
2019-05-02T18:11:37.766Z,15.68
2019-05-02T18:16:39.486Z,15.69
2019-05-02T18:21:41.903Z,15.67
2019-05-02T18:26:43.497Z,15.64
2019-05-02T18:31:47.249Z,15.57
2019-05-02T18:36:48.454Z,15.52
2019-05-02T18:41:51.932Z,15.45
2019-05-02T18:46:53.585Z,15.40
2019-05-02T18:51:57.396Z,15.34
2019-05-02T18:56:58.630Z,15.38
2019-05-02T19:02:02.154Z,15.40
2019-05-02T19:07:07.562Z,15.43
2019-05-02T19:12:13.869Z,15.44
2019-05-02T19:17:12.491Z,15.45
2019-05-02T19:22:17.024Z,15.36
2019-05-02T19:27:21.076Z,15.36
2019-05-02T19:32:27.267Z,15.30
2019-05-02T19:37:26.683Z,15.22
2019-05-02T19:42:28.257Z,15.04
2019-05-02T19:47:31.697Z,14.76
2019-05-02T19:52:38.921Z,14.54
2019-05-02T19:57:37.347Z,14.37
2019-05-02T20:02:42.267Z,14.30
2019-05-02T20:07:42.862Z,14.22
2019-05-02T20:12:48.212Z,14.10
2019-05-02T20:17:48.047Z,14.02
2019-05-02T20:22:49.937Z,13.97
2019-05-02T20:27:52.587Z,13.95
2019-05-02T20:32:54.288Z,13.91
2019-05-02T20:37:55.767Z,13.86
2019-05-02T20:42:57.335Z,13.74
2019-05-02T20:47:59.426Z,13.66
2019-05-02T20:53:01.963Z,13.65
2019-05-02T20:58:03.895Z,13.67
2019-05-02T21:03:05.467Z,13.67
2019-05-02T21:08:22.556Z,13.66
2019-05-02T21:13:24.882Z,13.61
2019-05-02T21:18:26.755Z,13.53
2019-05-02T21:23:40.654Z,13.39
2019-05-02T21:28:32.253Z,13.21
2019-05-02T21:33:38.612Z,13.10
2019-05-02T21:38:42.559Z,13.07
2019-05-02T21:43:44.080Z,13.05
2019-05-02T21:48:45.559Z,13.01
2019-05-02T21:53:58.558Z,12.96
2019-05-02T21:59:07.267Z,12.90
2019-05-02T22:04:09.122Z,12.75
2019-05-02T22:09:12.260Z,12.75
2019-05-02T22:14:14.919Z,12.69
2019-05-02T22:19:16.492Z,12.69
2019-05-02T22:24:17.980Z,12.68
2019-05-02T22:29:21.699Z,12.62
2019-05-02T22:34:23.322Z,12.56
2019-05-02T22:39:42.054Z,12.54
2019-05-02T22:44:43.910Z,12.50
2019-05-02T22:49:45.392Z,12.34
2019-05-02T22:54:46.915Z,12.25
2019-05-02T22:59:48.401Z,12.28
2019-05-02T23:04:52.409Z,12.17
2019-05-02T23:09:53.711Z,12.09
2019-05-02T23:14:55.288Z,11.97
2019-05-02T23:19:56.862Z,11.92
2019-05-02T23:25:17.167Z,11.81
2019-05-02T23:30:22.554Z,11.83
2019-05-02T23:35:24.230Z,11.84
2019-05-02T23:40:25.750Z,11.84
2019-05-02T23:45:27.337Z,11.81
2019-05-02T23:50:28.811Z,11.81
2019-05-02T23:55:32.096Z,11.81
